Musson, Belgium
Current Conditions -  °F | °C
As of 8:50 AM on Monday 24 Nov 2014 (Local Time) from ELLX Reporting Station
Broken Clouds Broken Clouds  
Wind Chill: 43°   Ceiling: 2700
Heat Index: 48°   Visibility: 6mi
Dew Point: 45°   Wind: 13mph
Humidity: 87%   Direction: 360°N
Pressure: 30.18"   Gusts: NA
Location:  49.56°N, 5.7°E
Report Text: ELLX 240750Z 36011KT 9999 FEW013 SCT016 BKN027 09/07 Q1022 NOSIG
Loading
Personal Weather Stations






























Interactive Weather Map New forecast layout! Learn more

10-Day Weather Forecast

Advertisements
Track Severe Weather on mobile